createdAt,value
2023-01-29T00:00:51.305Z,41.20
2023-01-29T00:02:52.996Z,41.30
2023-01-29T00:04:58.905Z,41.30
2023-01-29T00:07:00.875Z,41.30
2023-01-29T00:09:02.496Z,41.30
2023-01-29T00:11:06.366Z,41.30
2023-01-29T00:13:07.995Z,41.30
2023-01-29T00:15:09.605Z,41.30
2023-01-29T00:17:11.313Z,41.30
2023-01-29T00:19:12.984Z,41.20
2023-01-29T00:21:17.769Z,41.20
2023-01-29T00:23:19.808Z,41.10
2023-01-29T00:25:21.425Z,41.20
2023-01-29T00:27:23.063Z,41.20
2023-01-29T00:29:24.736Z,41.20
2023-01-29T00:31:27.224Z,41.20
2023-01-29T00:33:29.382Z,41.10
2023-01-29T00:35:31.876Z,41.20
2023-01-29T00:37:33.715Z,41.10
2023-01-29T00:39:47.836Z,41.20
2023-01-29T00:42:08.586Z,41.10
2023-01-29T00:44:29.130Z,41.10
2023-01-29T00:46:30.793Z,41.10
2023-01-29T00:48:33.512Z,41.10
2023-01-29T00:50:35.156Z,41.10
2023-01-29T00:52:37.173Z,41.00
2023-01-29T00:54:38.767Z,41.00
2023-01-29T00:56:40.407Z,41.00
2023-01-29T00:58:42.182Z,41.10
2023-01-29T01:00:45.084Z,41.00
2023-01-29T01:03:05.673Z,41.00
2023-01-29T01:05:10.253Z,41.00
2023-01-29T01:07:14.737Z,41.00
2023-01-29T01:09:35.112Z,41.00
2023-01-29T01:11:36.770Z,41.00
2023-01-29T01:13:38.380Z,40.90
2023-01-29T01:15:41.519Z,41.00
2023-01-29T01:17:43.134Z,41.00
2023-01-29T01:19:45.003Z,40.90
2023-01-29T01:21:48.314Z,41.00
2023-01-29T01:23:51.988Z,41.00
2023-01-29T01:25:53.606Z,41.00
2023-01-29T01:27:57.517Z,41.00
2023-01-29T01:29:59.157Z,41.20
2023-01-29T01:32:01.188Z,41.40
2023-01-29T01:34:02.942Z,41.40
2023-01-29T01:36:05.367Z,41.30
2023-01-29T01:38:07.115Z,41.40
2023-01-29T01:40:17.916Z,41.40
2023-01-29T01:42:19.771Z,41.40
2023-01-29T01:44:55.850Z,41.30
2023-01-29T01:46:57.709Z,41.30
2023-01-29T01:49:16.114Z,41.30
2023-01-29T01:51:19.548Z,41.20
2023-01-29T01:53:40.437Z,41.20
2023-01-29T01:55:50.550Z,41.10
2023-01-29T01:57:59.734Z,41.10
2023-01-29T02:00:13.036Z,41.10
2023-01-29T02:02:34.938Z,41.10
2023-01-29T02:05:04.286Z,41.10
2023-01-29T02:07:27.764Z,41.10
2023-01-29T02:10:01.013Z,41.10
2023-01-29T02:12:09.922Z,41.00
2023-01-29T02:14:12.209Z,41.10
2023-01-29T02:16:13.871Z,41.10
2023-01-29T02:18:17.830Z,41.10
2023-01-29T02:20:25.896Z,41.00
2023-01-29T02:22:45.653Z,41.00
2023-01-29T02:24:59.798Z,41.00
2023-01-29T02:27:24.473Z,41.00
2023-01-29T02:29:49.997Z,41.00
2023-01-29T02:32:14.246Z,41.00
2023-01-29T02:34:27.601Z,41.70
2023-01-29T02:36:40.481Z,41.00
2023-01-29T02:39:05.374Z,41.00
2023-01-29T02:41:34.908Z,40.90
2023-01-29T02:43:47.951Z,40.90
2023-01-29T02:46:16.802Z,40.90
2023-01-29T02:48:24.850Z,40.90
2023-01-29T02:50:43.172Z,40.90
2023-01-29T02:52:59.483Z,40.90
2023-01-29T02:55:15.769Z,40.90
2023-01-29T02:57:23.186Z,41.50
2023-01-29T02:59:36.936Z,40.80
2023-01-29T03:01:48.382Z,40.80
2023-01-29T03:03:56.135Z,40.80
2023-01-29T03:06:20.595Z,40.80
2023-01-29T03:08:37.081Z,40.70
2023-01-29T03:10:55.935Z,40.80
2023-01-29T03:13:12.675Z,40.70
2023-01-29T03:15:25.115Z,40.70
2023-01-29T03:17:32.969Z,40.70
2023-01-29T03:19:42.448Z,40.70
2023-01-29T03:21:59.970Z,40.70
2023-01-29T03:24:21.648Z,40.70
2023-01-29T03:26:43.647Z,40.70
2023-01-29T03:29:06.073Z,40.70
2023-01-29T03:31:31.178Z,40.70
2023-01-29T03:33:40.190Z,40.70
2023-01-29T03:35:49.595Z,40.70
2023-01-29T03:37:51.306Z,40.70
2023-01-29T03:39:53.132Z,40.60
2023-01-29T03:42:16.406Z,40.60
2023-01-29T03:44:34.453Z,40.60
2023-01-29T03:46:44.529Z,40.50
2023-01-29T03:48:56.706Z,40.50
2023-01-29T03:51:15.566Z,40.50
2023-01-29T03:53:44.086Z,40.50
2023-01-29T03:56:06.956Z,40.50
2023-01-29T03:58:32.027Z,40.50
2023-01-29T04:00:39.828Z,40.40
2023-01-29T04:02:57.372Z,40.40
2023-01-29T04:05:13.728Z,41.10
2023-01-29T04:07:24.401Z,40.40
2023-01-29T04:09:33.987Z,40.40
2023-01-29T04:11:41.730Z,40.40
2023-01-29T04:13:43.849Z,40.40
2023-01-29T04:15:50.613Z,40.40
2023-01-29T04:17:53.120Z,40.40
2023-01-29T04:19:54.843Z,40.40
2023-01-29T04:22:12.515Z,40.40
2023-01-29T04:24:15.035Z,40.40
2023-01-29T04:26:33.073Z,40.30
2023-01-29T04:28:52.555Z,40.30
2023-01-29T04:31:02.793Z,40.30
2023-01-29T04:33:14.186Z,40.30
2023-01-29T04:35:40.441Z,40.30
2023-01-29T04:37:59.415Z,41.00
2023-01-29T04:40:21.153Z,40.30
2023-01-29T04:42:44.515Z,40.30
2023-01-29T04:45:13.514Z,40.30
2023-01-29T04:47:30.166Z,40.30
2023-01-29T04:49:44.189Z,40.20
2023-01-29T04:52:17.184Z,40.20
2023-01-29T04:54:57.070Z,40.20
2023-01-29T04:57:37.195Z,40.20
2023-01-29T04:59:47.099Z,40.20
2023-01-29T05:01:49.486Z,40.20
2023-01-29T05:03:53.246Z,40.20
2023-01-29T05:05:57.147Z,40.20
2023-01-29T05:07:59.588Z,40.30
2023-01-29T05:10:01.413Z,40.20
2023-01-29T05:12:05.632Z,40.20
2023-01-29T05:14:11.588Z,40.00
2023-01-29T05:16:42.649Z,40.00
2023-01-29T05:18:44.443Z,39.80
2023-01-29T05:20:47.932Z,39.70
2023-01-29T05:22:49.833Z,39.70
2023-01-29T05:24:51.501Z,39.80
2023-01-29T05:27:13.258Z,39.80
2023-01-29T05:29:14.903Z,39.80
2023-01-29T05:31:16.592Z,39.60
2023-01-29T05:33:25.038Z,40.30
2023-01-29T05:35:28.351Z,39.60
2023-01-29T05:37:30.084Z,39.60
2023-01-29T05:39:31.715Z,39.60
2023-01-29T05:41:33.404Z,39.60
2023-01-29T05:43:35.172Z,39.60
2023-01-29T05:45:36.812Z,39.70
2023-01-29T05:47:38.463Z,39.70
2023-01-29T05:49:40.170Z,39.80
2023-01-29T05:51:41.851Z,39.90
2023-01-29T05:53:43.465Z,39.80
2023-01-29T05:55:48.354Z,39.70
2023-01-29T05:57:49.998Z,39.70
2023-01-29T05:59:51.626Z,39.80
2023-01-29T06:01:53.323Z,39.80
2023-01-29T06:03:55.041Z,39.70
2023-01-29T06:05:56.699Z,39.60
2023-01-29T06:07:58.327Z,39.50
2023-01-29T06:09:59.987Z,39.50
2023-01-29T06:12:01.678Z,39.50
2023-01-29T06:14:03.578Z,39.50
2023-01-29T06:16:09.175Z,39.40
2023-01-29T06:18:10.886Z,39.30
2023-01-29T06:20:12.779Z,39.30
2023-01-29T06:22:14.398Z,39.30
2023-01-29T06:24:16.077Z,39.30
2023-01-29T06:26:17.746Z,39.30
2023-01-29T06:28:19.415Z,39.20
2023-01-29T06:30:22.187Z,39.80
2023-01-29T06:32:23.921Z,39.10
2023-01-29T06:34:25.625Z,39.10
2023-01-29T06:36:27.259Z,39.10
2023-01-29T06:38:29.727Z,39.10
2023-01-29T06:40:31.358Z,39.20
2023-01-29T06:42:35.567Z,39.20
2023-01-29T06:44:37.203Z,39.00
2023-01-29T06:46:38.815Z,38.90
2023-01-29T06:48:40.484Z,38.90
2023-01-29T06:50:42.142Z,38.90
2023-01-29T06:52:43.737Z,38.90
2023-01-29T06:54:45.316Z,38.80
2023-01-29T06:56:46.921Z,38.90
2023-01-29T06:58:48.697Z,39.00
2023-01-29T07:00:50.403Z,39.10
2023-01-29T07:02:52.049Z,39.00
2023-01-29T07:04:53.714Z,39.10
2023-01-29T07:06:55.384Z,39.10
2023-01-29T07:08:57.115Z,39.10
2023-01-29T07:11:00.231Z,39.10
2023-01-29T07:13:02.155Z,39.10
2023-01-29T07:15:04.235Z,39.30
2023-01-29T07:17:05.849Z,39.20
2023-01-29T07:19:07.497Z,39.30
2023-01-29T07:21:09.156Z,39.40
2023-01-29T07:23:12.762Z,39.30
2023-01-29T07:25:14.478Z,38.30
2023-01-29T07:27:16.141Z,38.90
2023-01-29T07:29:17.796Z,39.20
2023-01-29T07:31:19.557Z,39.50
2023-01-29T07:33:21.248Z,39.80
2023-01-29T07:35:22.910Z,39.90
2023-01-29T07:37:24.576Z,40.00
2023-01-29T07:39:26.222Z,39.70
2023-01-29T07:41:27.871Z,39.70
2023-01-29T07:43:30.158Z,39.90
2023-01-29T07:45:33.518Z,40.10
2023-01-29T07:47:35.202Z,40.00
2023-01-29T07:49:36.852Z,39.90
2023-01-29T07:51:38.512Z,39.90
2023-01-29T07:53:40.257Z,39.90
2023-01-29T07:55:45.063Z,39.90
2023-01-29T07:57:46.845Z,39.90
2023-01-29T07:59:48.624Z,39.80
2023-01-29T08:01:50.238Z,39.80
2023-01-29T08:03:51.950Z,39.90
2023-01-29T08:05:53.792Z,39.90
2023-01-29T08:08:06.054Z,40.00
2023-01-29T08:10:09.602Z,40.00
2023-01-29T08:12:11.239Z,39.90
2023-01-29T08:14:12.905Z,40.00
2023-01-29T08:16:14.712Z,39.90
2023-01-29T08:18:16.491Z,40.00
2023-01-29T08:20:19.465Z,40.00
2023-01-29T08:22:21.247Z,40.00
2023-01-29T08:24:24.341Z,40.00
2023-01-29T08:26:27.472Z,40.10
2023-01-29T08:28:29.242Z,40.10
2023-01-29T08:30:34.021Z,40.30
2023-01-29T08:32:35.732Z,40.20
2023-01-29T08:34:37.348Z,40.20
2023-01-29T08:36:38.982Z,40.30
2023-01-29T08:38:41.291Z,40.30
2023-01-29T08:40:43.536Z,40.40
2023-01-29T08:42:45.214Z,40.50
2023-01-29T08:44:46.875Z,38.00
2023-01-29T08:46:48.508Z,35.60
2023-01-29T08:48:50.209Z,34.50
2023-01-29T08:50:51.852Z,34.50
2023-01-29T08:52:58.176Z,37.70
2023-01-29T08:55:00.041Z,38.30
2023-01-29T08:57:01.728Z,38.40
2023-01-29T08:59:03.382Z,38.60
2023-01-29T09:01:10.518Z,38.40
2023-01-29T09:03:12.469Z,38.60
2023-01-29T09:05:14.899Z,39.00
2023-01-29T09:07:16.778Z,38.80
2023-01-29T09:09:18.445Z,38.90
2023-01-29T09:11:20.083Z,38.90
2023-01-29T09:13:21.696Z,39.00
2023-01-29T09:15:23.743Z,39.10
2023-01-29T09:17:25.471Z,39.20
2023-01-29T09:19:27.052Z,39.30
2023-01-29T09:21:28.658Z,39.30
2023-01-29T09:23:30.722Z,39.50
2023-01-29T09:25:32.386Z,39.70
2023-01-29T09:27:34.037Z,39.70
2023-01-29T09:29:36.081Z,39.70
2023-01-29T09:31:37.855Z,39.70
2023-01-29T09:33:39.549Z,39.80
2023-01-29T09:35:42.936Z,39.90
2023-01-29T09:37:48.160Z,39.90
2023-01-29T09:39:50.348Z,39.70
2023-01-29T09:42:08.679Z,39.90
2023-01-29T09:44:46.244Z,40.10
2023-01-29T09:46:51.380Z,40.00
2023-01-29T09:49:01.729Z,38.30
2023-01-29T09:51:10.873Z,39.10
2023-01-29T09:53:24.237Z,39.20
2023-01-29T09:55:29.841Z,39.20
2023-01-29T09:57:45.712Z,39.20
2023-01-29T09:59:47.420Z,39.10
2023-01-29T10:01:52.779Z,39.00
2023-01-29T10:04:00.093Z,38.90
2023-01-29T10:06:19.822Z,38.80
2023-01-29T10:09:03.784Z,38.80
2023-01-29T10:11:21.677Z,38.70
2023-01-29T10:13:53.602Z,38.60
2023-01-29T10:16:14.122Z,38.50
2023-01-29T10:18:40.205Z,38.50
2023-01-29T10:21:19.239Z,38.30
2023-01-29T10:23:26.783Z,38.30
2023-01-29T10:25:28.528Z,38.80
2023-01-29T10:27:35.097Z,38.20
2023-01-29T10:29:36.790Z,38.00
2023-01-29T10:31:40.201Z,38.00
2023-01-29T10:33:59.468Z,38.00
2023-01-29T10:36:07.222Z,37.80
2023-01-29T10:38:31.028Z,37.80
2023-01-29T10:40:36.965Z,37.80
2023-01-29T10:42:46.687Z,37.70
2023-01-29T10:44:59.765Z,37.70
2023-01-29T10:47:45.732Z,37.60
2023-01-29T10:50:14.296Z,37.60
2023-01-29T10:52:57.285Z,37.50
2023-01-29T10:55:01.966Z,37.50
2023-01-29T10:57:23.873Z,37.40
2023-01-29T11:00:10.117Z,37.40
2023-01-29T11:02:18.875Z,37.30
2023-01-29T11:04:20.626Z,37.20
2023-01-29T11:06:28.465Z,37.20
2023-01-29T11:08:43.070Z,37.20
2023-01-29T11:11:15.240Z,37.20
2023-01-29T11:13:18.548Z,37.10
2023-01-29T11:15:24.966Z,37.10
2023-01-29T11:17:26.916Z,37.10
2023-01-29T11:19:49.856Z,37.10
2023-01-29T11:22:00.979Z,35.50
2023-01-29T11:24:06.918Z,35.00
2023-01-29T11:26:13.014Z,36.80
2023-01-29T11:28:36.025Z,35.80
2023-01-29T11:30:39.938Z,36.40
2023-01-29T11:32:42.030Z,36.80
2023-01-29T11:35:16.175Z,36.90
2023-01-29T11:37:20.821Z,36.90
2023-01-29T11:39:24.531Z,37.00
2023-01-29T11:41:26.841Z,37.10
2023-01-29T11:43:31.103Z,37.10
2023-01-29T11:45:34.781Z,37.10
2023-01-29T11:47:36.461Z,37.30
2023-01-29T11:49:39.342Z,37.40
2023-01-29T11:51:41.741Z,37.30
2023-01-29T11:53:46.464Z,37.20
2023-01-29T11:55:50.786Z,37.20
2023-01-29T11:58:22.212Z,37.30
2023-01-29T12:00:31.186Z,37.90
2023-01-29T12:02:54.498Z,37.70
2023-01-29T12:04:57.999Z,37.80
2023-01-29T12:06:59.907Z,37.80
2023-01-29T12:09:08.029Z,38.30
2023-01-29T12:11:23.561Z,38.60
2023-01-29T12:13:28.788Z,38.80
2023-01-29T12:15:30.489Z,39.10
2023-01-29T12:17:37.382Z,39.50
2023-01-29T12:19:53.777Z,39.50
2023-01-29T12:22:23.567Z,39.70
2023-01-29T12:24:50.207Z,39.70
2023-01-29T12:27:09.074Z,39.90
2023-01-29T12:29:48.062Z,39.90
2023-01-29T12:32:12.067Z,40.00
2023-01-29T12:34:24.580Z,39.90
2023-01-29T12:36:31.963Z,39.90
2023-01-29T12:38:37.132Z,40.00
2023-01-29T12:40:42.843Z,39.90
2023-01-29T12:42:55.231Z,40.10
2023-01-29T12:45:02.790Z,40.10
2023-01-29T12:47:07.482Z,40.30
2023-01-29T12:49:27.317Z,40.20
2023-01-29T12:51:35.180Z,40.20
2023-01-29T12:54:03.111Z,40.10
2023-01-29T12:56:16.591Z,40.60
2023-01-29T12:58:28.609Z,40.80
2023-01-29T13:00:35.579Z,40.90
2023-01-29T13:02:53.514Z,40.40
2023-01-29T13:05:00.506Z,40.90
2023-01-29T13:07:16.510Z,41.10
2023-01-29T13:09:24.362Z,41.00
2023-01-29T13:11:50.468Z,41.00
2023-01-29T13:14:03.260Z,41.00
2023-01-29T13:16:09.807Z,41.20
2023-01-29T13:18:46.527Z,41.20
2023-01-29T13:20:50.070Z,41.10
2023-01-29T13:22:55.642Z,41.10
2023-01-29T13:25:04.591Z,41.10
2023-01-29T13:27:07.615Z,41.20
2023-01-29T13:29:20.565Z,41.30
2023-01-29T13:31:31.677Z,40.70
2023-01-29T13:33:34.112Z,39.50
2023-01-29T13:35:39.264Z,40.60
2023-01-29T13:38:20.924Z,40.60
2023-01-29T13:40:28.764Z,40.70
2023-01-29T13:42:45.513Z,40.60
2023-01-29T13:44:57.193Z,40.70
2023-01-29T13:47:05.155Z,40.60
2023-01-29T13:49:27.012Z,40.50
2023-01-29T13:51:34.805Z,40.60
2023-01-29T13:53:40.342Z,40.60
2023-01-29T13:55:42.158Z,40.50
2023-01-29T13:57:43.778Z,40.50
2023-01-29T13:59:53.605Z,40.40
2023-01-29T14:01:55.679Z,40.50
2023-01-29T14:04:05.569Z,40.60
2023-01-29T14:06:08.595Z,40.60
2023-01-29T14:08:10.171Z,40.90
2023-01-29T14:10:21.753Z,40.70
2023-01-29T14:12:23.328Z,40.70
2023-01-29T14:14:56.747Z,40.70
2023-01-29T14:17:02.567Z,40.70
2023-01-29T14:19:05.727Z,40.70
2023-01-29T14:21:29.750Z,40.70
2023-01-29T14:23:37.763Z,40.80
2023-01-29T14:25:41.065Z,40.90
2023-01-29T14:27:47.708Z,40.90
2023-01-29T14:29:51.719Z,41.00
2023-01-29T14:32:09.271Z,40.90
2023-01-29T14:34:23.696Z,40.90
2023-01-29T14:36:27.016Z,40.90
2023-01-29T14:38:29.609Z,40.80
2023-01-29T14:40:32.892Z,40.80
2023-01-29T14:42:38.524Z,40.70
2023-01-29T14:44:46.685Z,40.50
2023-01-29T14:46:49.127Z,40.40
2023-01-29T14:48:51.791Z,40.40
2023-01-29T14:50:59.070Z,40.30
2023-01-29T14:53:11.012Z,40.20
2023-01-29T14:55:39.196Z,40.20
2023-01-29T14:57:42.633Z,40.40
2023-01-29T14:59:54.615Z,40.50
2023-01-29T15:02:00.581Z,40.60
2023-01-29T15:04:12.091Z,40.90
2023-01-29T15:06:19.303Z,41.10
2023-01-29T15:08:30.071Z,40.90
2023-01-29T15:10:39.925Z,40.80
2023-01-29T15:13:22.036Z,40.80
2023-01-29T15:15:46.307Z,40.60
2023-01-29T15:18:01.571Z,40.80
2023-01-29T15:20:31.105Z,40.80
2023-01-29T15:22:42.927Z,40.70
2023-01-29T15:24:46.943Z,40.60
2023-01-29T15:26:48.666Z,40.50
2023-01-29T15:29:04.219Z,40.50
2023-01-29T15:31:13.565Z,40.40
2023-01-29T15:33:15.343Z,40.30
2023-01-29T15:35:41.267Z,40.30
2023-01-29T15:37:42.915Z,40.20
2023-01-29T15:39:45.133Z,40.10
2023-01-29T15:41:47.040Z,40.80
2023-01-29T15:43:58.166Z,40.00
2023-01-29T15:46:04.756Z,39.90
2023-01-29T15:48:13.863Z,39.90
2023-01-29T15:50:15.564Z,39.90
2023-01-29T15:52:28.344Z,39.90
2023-01-29T15:54:32.208Z,39.80
2023-01-29T15:56:41.242Z,39.80
2023-01-29T15:58:43.169Z,39.80
2023-01-29T16:00:56.502Z,39.80
2023-01-29T16:03:00.642Z,40.30
2023-01-29T16:05:04.404Z,39.70
2023-01-29T16:07:06.072Z,39.80
2023-01-29T16:09:08.491Z,39.80
2023-01-29T16:11:10.580Z,39.70
2023-01-29T16:13:24.187Z,39.90
2023-01-29T16:15:33.285Z,40.10
2023-01-29T16:17:37.956Z,39.90
2023-01-29T16:19:39.589Z,40.00
2023-01-29T16:21:45.728Z,39.90
2023-01-29T16:23:53.577Z,39.90
2023-01-29T16:26:05.751Z,39.90
2023-01-29T16:28:08.225Z,40.50
2023-01-29T16:30:14.321Z,39.90
2023-01-29T16:32:16.821Z,39.80
2023-01-29T16:34:26.593Z,39.90
2023-01-29T16:36:28.369Z,39.80
2023-01-29T16:38:33.422Z,39.80
2023-01-29T16:40:37.992Z,39.80
2023-01-29T16:42:41.486Z,39.80
2023-01-29T16:45:02.901Z,39.80
2023-01-29T16:47:23.535Z,39.60
2023-01-29T16:49:31.141Z,39.60
2023-01-29T16:51:39.774Z,39.70
2023-01-29T16:53:55.256Z,39.60
2023-01-29T16:56:04.291Z,39.80
2023-01-29T16:58:16.741Z,40.00
2023-01-29T17:00:29.881Z,40.00
2023-01-29T17:02:36.815Z,40.00
2023-01-29T17:04:41.871Z,39.80
2023-01-29T17:06:47.152Z,39.80
2023-01-29T17:08:49.485Z,39.80
2023-01-29T17:10:51.494Z,39.70
2023-01-29T17:13:02.071Z,39.70
2023-01-29T17:15:25.649Z,39.70
2023-01-29T17:17:36.130Z,39.80
2023-01-29T17:19:37.805Z,39.90
2023-01-29T17:21:39.500Z,40.00
2023-01-29T17:23:41.130Z,40.10
2023-01-29T17:25:42.867Z,40.10
2023-01-29T17:27:51.441Z,40.20
2023-01-29T17:29:53.697Z,40.20
2023-01-29T17:31:56.083Z,40.30
2023-01-29T17:33:57.771Z,40.30
2023-01-29T17:35:59.503Z,40.20
2023-01-29T17:38:01.164Z,39.60
2023-01-29T17:40:05.249Z,39.70
2023-01-29T17:42:13.669Z,40.00
2023-01-29T17:44:15.424Z,40.20
2023-01-29T17:46:18.597Z,40.00
2023-01-29T17:48:26.492Z,40.00
2023-01-29T17:50:31.858Z,39.90
2023-01-29T17:52:33.475Z,40.00
2023-01-29T17:54:35.385Z,40.10
2023-01-29T17:56:37.161Z,40.70
2023-01-29T17:58:38.898Z,40.90
2023-01-29T18:00:40.569Z,41.10
2023-01-29T18:02:42.191Z,41.00
2023-01-29T18:04:43.820Z,41.00
2023-01-29T18:06:48.167Z,41.00
2023-01-29T18:08:49.880Z,41.00
2023-01-29T18:10:51.581Z,41.00
2023-01-29T18:12:53.240Z,40.90
2023-01-29T18:14:54.916Z,41.00
2023-01-29T18:16:57.374Z,41.00
2023-01-29T18:18:59.805Z,41.10
2023-01-29T18:21:01.480Z,40.90
2023-01-29T18:23:04.274Z,40.70
2023-01-29T18:25:06.246Z,41.40
2023-01-29T18:27:08.791Z,41.30
2023-01-29T18:29:10.453Z,41.10
2023-01-29T18:31:13.985Z,41.00
2023-01-29T18:33:16.909Z,40.90
2023-01-29T18:35:18.846Z,40.80
2023-01-29T18:37:20.698Z,40.80
2023-01-29T18:39:22.436Z,41.50
2023-01-29T18:41:24.135Z,40.80
2023-01-29T18:43:27.074Z,40.60
2023-01-29T18:45:29.021Z,40.70
2023-01-29T18:47:30.827Z,40.60
2023-01-29T18:49:32.533Z,40.60
2023-01-29T18:51:34.520Z,40.60
2023-01-29T18:53:36.228Z,40.60
2023-01-29T18:55:38.008Z,40.60
2023-01-29T18:58:27.494Z,40.60
2023-01-29T19:00:02.755Z,40.60
2023-01-29T19:02:04.564Z,40.50
2023-01-29T19:04:06.762Z,40.50
2023-01-29T19:06:10.978Z,40.40
2023-01-29T19:08:12.937Z,40.50
2023-01-29T19:10:16.807Z,40.40
2023-01-29T19:12:18.552Z,40.40
2023-01-29T19:14:20.233Z,40.30
2023-01-29T19:16:22.009Z,40.30
2023-01-29T19:18:26.031Z,40.40
2023-01-29T19:20:27.862Z,40.40
2023-01-29T19:22:29.559Z,40.40
2023-01-29T19:24:36.180Z,40.50
2023-01-29T19:26:37.925Z,40.40
2023-01-29T19:28:40.526Z,40.40
2023-01-29T19:30:42.490Z,40.40
2023-01-29T19:32:44.272Z,40.40
2023-01-29T19:34:45.990Z,40.50
2023-01-29T19:36:47.599Z,40.70
2023-01-29T19:38:49.287Z,40.70
2023-01-29T19:40:51.626Z,40.70
2023-01-29T19:42:55.529Z,40.60
2023-01-29T19:44:57.144Z,40.70
2023-01-29T19:46:58.887Z,40.80
2023-01-29T19:49:03.429Z,40.60
2023-01-29T19:51:08.988Z,40.60
2023-01-29T19:53:10.654Z,40.60
2023-01-29T19:55:12.872Z,40.70
2023-01-29T19:57:14.514Z,40.80
2023-01-29T19:59:16.175Z,40.60
2023-01-29T20:01:21.704Z,40.60
2023-01-29T20:03:24.148Z,40.80
2023-01-29T20:05:26.990Z,40.60
2023-01-29T20:07:28.660Z,40.50
2023-01-29T20:09:30.288Z,40.50
2023-01-29T20:11:32.355Z,40.50
2023-01-29T20:13:34.352Z,40.50
2023-01-29T20:15:36.183Z,40.50
2023-01-29T20:17:37.871Z,40.50
2023-01-29T20:19:39.519Z,40.50
2023-01-29T20:21:41.803Z,40.40
2023-01-29T20:23:49.825Z,40.50
2023-01-29T20:25:52.414Z,40.40
2023-01-29T20:27:54.075Z,40.50
2023-01-29T20:29:55.799Z,40.50
2023-01-29T20:31:57.504Z,40.50
2023-01-29T20:33:59.138Z,40.40
2023-01-29T20:36:03.561Z,40.40
2023-01-29T20:38:05.710Z,40.50
2023-01-29T20:40:08.508Z,40.50
2023-01-29T20:42:10.096Z,40.50
2023-01-29T20:44:11.877Z,40.50
2023-01-29T20:46:13.739Z,40.50
2023-01-29T20:48:15.458Z,40.50
2023-01-29T20:50:19.176Z,40.50
2023-01-29T20:52:20.967Z,40.50
2023-01-29T20:54:22.908Z,40.50
2023-01-29T20:56:36.058Z,40.40
2023-01-29T20:58:40.746Z,40.50
2023-01-29T21:00:42.515Z,40.40
2023-01-29T21:02:45.761Z,40.30
2023-01-29T21:04:47.418Z,40.40
2023-01-29T21:06:49.248Z,40.40
2023-01-29T21:08:50.904Z,40.40
2023-01-29T21:10:53.063Z,40.20
2023-01-29T21:12:54.731Z,40.20
2023-01-29T21:14:56.387Z,40.40
2023-01-29T21:16:58.307Z,40.40
2023-01-29T21:19:00.028Z,40.40
2023-01-29T21:21:01.677Z,40.50
2023-01-29T21:23:06.587Z,40.40
2023-01-29T21:25:08.913Z,40.40
2023-01-29T21:27:10.968Z,40.30
2023-01-29T21:29:13.837Z,40.30
2023-01-29T21:31:17.652Z,40.20
2023-01-29T21:33:19.300Z,40.20
2023-01-29T21:35:21.038Z,40.20
2023-01-29T21:37:22.675Z,40.20
2023-01-29T21:39:26.326Z,40.10
2023-01-29T21:41:46.407Z,40.00
2023-01-29T21:43:48.008Z,40.00
2023-01-29T21:45:58.269Z,40.00
2023-01-29T21:47:59.999Z,39.90
2023-01-29T21:50:01.663Z,39.80
2023-01-29T21:52:03.371Z,39.80
2023-01-29T21:54:05.085Z,39.70
2023-01-29T21:56:06.916Z,39.70
2023-01-29T21:58:08.630Z,39.60
2023-01-29T22:00:12.446Z,39.60
2023-01-29T22:02:15.191Z,39.70
2023-01-29T22:04:16.975Z,39.60
2023-01-29T22:06:18.597Z,39.60
2023-01-29T22:08:20.816Z,39.60
2023-01-29T22:10:23.323Z,39.60
2023-01-29T22:12:25.039Z,39.60
2023-01-29T22:14:26.715Z,39.60
2023-01-29T22:16:29.829Z,39.60
2023-01-29T22:18:31.601Z,39.60
2023-01-29T22:20:33.305Z,40.30
2023-01-29T22:22:34.955Z,39.60
2023-01-29T22:24:36.561Z,39.60
2023-01-29T22:26:38.281Z,39.60
2023-01-29T22:28:40.016Z,39.70
2023-01-29T22:30:45.151Z,39.60
2023-01-29T22:32:46.874Z,39.60
2023-01-29T22:34:48.486Z,39.60
2023-01-29T22:36:50.578Z,39.60
2023-01-29T22:38:52.185Z,39.60
2023-01-29T22:40:55.480Z,39.60
2023-01-29T22:42:57.751Z,39.60
2023-01-29T22:44:59.380Z,39.60
2023-01-29T22:47:01.197Z,39.60
2023-01-29T22:49:03.293Z,39.60
2023-01-29T22:51:11.113Z,39.50
2023-01-29T22:53:12.721Z,39.60
2023-01-29T22:55:14.376Z,39.60
2023-01-29T22:57:16.085Z,39.50
2023-01-29T22:59:17.752Z,39.60
2023-01-29T23:01:24.587Z,39.50
2023-01-29T23:03:26.496Z,39.50
2023-01-29T23:05:28.142Z,39.50
2023-01-29T23:07:30.261Z,39.60
2023-01-29T23:09:31.884Z,39.50
2023-01-29T23:11:33.479Z,39.50
2023-01-29T23:13:35.079Z,39.50
2023-01-29T23:15:36.693Z,39.50
2023-01-29T23:17:39.558Z,39.50
2023-01-29T23:19:41.454Z,39.50
2023-01-29T23:21:43.406Z,39.50
2023-01-29T23:23:45.626Z,39.50
2023-01-29T23:26:05.912Z,39.60
2023-01-29T23:28:07.541Z,39.40
2023-01-29T23:30:09.732Z,39.40
2023-01-29T23:32:13.132Z,39.40
2023-01-29T23:34:15.162Z,39.50
2023-01-29T23:36:17.183Z,39.40
2023-01-29T23:38:18.896Z,39.40
2023-01-29T23:40:20.531Z,39.40
2023-01-29T23:42:22.311Z,39.40
2023-01-29T23:44:24.008Z,39.50
2023-01-29T23:46:25.727Z,39.50
2023-01-29T23:48:27.589Z,39.50
2023-01-29T23:50:29.188Z,39.40
2023-01-29T23:52:30.809Z,39.40
2023-01-29T23:54:32.443Z,39.50
2023-01-29T23:56:34.260Z,39.40
2023-01-29T23:58:35.928Z,39.40
